Time;durP1;ratioP1;P1;durP2;ratioP2;P2;SDS_P1;SDS_P2;PMS_P1;PMS_P2;Temp;Humidity;BMP_temperature;BMP_pressure;BME280_temperature;BME280_humidity;BME280_pressure;Samples;Min_cycle;Max_cycle;Signal;HPM_P1;HPM_P2
2024/01/26 00:01:08;;;;;;;93.25;60.60;;;19.50;72.20;;;;;;5012574;28;20026;-66
2024/01/26 00:03:33;;;;;;;89.03;60.78;;;19.50;72.10;;;;;;5012186;28;20033;-65
2024/01/26 00:06:00;;;;;;;89.90;59.53;;;19.50;72.30;;;;;;5010934;28;20033;-66
2024/01/26 00:08:25;;;;;;;96.70;61.03;;;19.50;72.40;;;;;;5010682;28;20033;-67
2024/01/26 00:10:51;;;;;;;95.00;59.83;;;19.50;72.80;;;;;;5010679;28;20037;-66
2024/01/26 00:13:16;;;;;;;90.93;58.05;;;19.50;72.80;;;;;;5011659;28;20025;-66
2024/01/26 00:15:46;;;;;;;91.07;59.42;;;19.50;72.70;;;;;;5011516;28;20105;-66
2024/01/26 00:18:11;;;;;;;91.70;59.25;;;19.50;72.60;;;;;;5012025;28;20030;-66
2024/01/26 00:20:37;;;;;;;90.18;60.45;;;19.50;73.00;;;;;;5010402;28;20168;-66
2024/01/26 00:23:03;;;;;;;91.40;59.85;;;19.50;73.00;;;;;;5011526;28;20474;-66
2024/01/26 00:25:28;;;;;;;95.80;60.88;;;19.50;72.90;;;;;;5011503;28;20568;-66
2024/01/26 00:27:54;;;;;;;96.63;60.80;;;19.50;72.80;;;;;;5011449;28;20069;-67
2024/01/26 00:30:20;;;;;;;86.82;58.88;;;19.50;72.90;;;;;;5011002;28;20037;-66
2024/01/26 00:32:46;;;;;;;90.53;59.88;;;19.50;72.90;;;;;;5011351;28;20103;-66
2024/01/26 00:35:12;;;;;;;86.28;58.25;;;19.50;73.00;;;;;;5011518;28;20061;-67
2024/01/26 00:37:37;;;;;;;88.82;59.38;;;19.50;73.20;;;;;;5011245;28;20029;-66
2024/01/26 00:40:03;;;;;;;93.63;61.42;;;19.50;73.30;;;;;;5010299;28;20028;-66
2024/01/26 00:42:29;;;;;;;92.43;59.55;;;19.50;73.40;;;;;;5011092;28;20485;-65
2024/01/26 00:44:55;;;;;;;86.05;58.95;;;19.50;73.70;;;;;;5011113;28;20045;-64
2024/01/26 00:47:20;;;;;;;86.47;58.38;;;19.50;73.90;;;;;;5011481;28;20049;-64
2024/01/26 00:49:46;;;;;;;88.20;59.13;;;19.50;74.00;;;;;;5010726;28;20513;-64
2024/01/26 00:52:11;;;;;;;91.63;59.80;;;19.50;74.20;;;;;;5010550;28;20018;-65
2024/01/26 00:54:38;;;;;;;89.60;59.22;;;19.50;74.20;;;;;;5010856;28;20068;-65
2024/01/26 00:57:04;;;;;;;89.63;57.90;;;19.50;74.30;;;;;;5011023;28;20026;-66
2024/01/26 00:59:30;;;;;;;89.10;59.45;;;19.50;74.40;;;;;;5011098;28;20105;-66
2024/01/26 01:01:57;;;;;;;90.85;58.47;;;19.50;74.50;;;;;;5010387;28;20109;-65
2024/01/26 01:04:24;;;;;;;90.88;59.70;;;19.50;74.50;;;;;;5011450;28;20125;-66
2024/01/26 01:06:52;;;;;;;90.65;60.90;;;19.50;74.50;;;;;;5011007;28;20046;-66
2024/01/26 01:09:18;;;;;;;85.13;58.35;;;19.50;74.60;;;;;;5010803;28;20076;-66
2024/01/26 01:11:44;;;;;;;87.35;59.70;;;19.50;74.40;;;;;;5009860;28;20034;-66
2024/01/26 01:14:09;;;;;;;86.25;58.28;;;19.50;74.40;;;;;;5010853;28;20091;-66
2024/01/26 01:16:35;;;;;;;87.78;60.83;;;19.50;74.30;;;;;;5010675;28;20436;-65
2024/01/26 01:19:01;;;;;;;87.28;58.55;;;19.50;74.20;;;;;;5010877;28;20022;-66
2024/01/26 01:21:26;;;;;;;85.07;57.83;;;19.50;74.10;;;;;;5009961;28;20030;-66
2024/01/26 01:23:52;;;;;;;88.95;59.90;;;19.50;74.10;;;;;;5010385;28;20041;-68
2024/01/26 01:26:18;;;;;;;89.45;60.40;;;19.50;74.10;;;;;;5010814;28;20496;-68
2024/01/26 01:28:43;;;;;;;85.80;59.50;;;19.50;74.10;;;;;;5010575;28;20018;-67
2024/01/26 01:31:10;;;;;;;88.03;58.08;;;19.50;74.10;;;;;;5009720;28;20077;-67
2024/01/26 01:33:36;;;;;;;89.20;57.92;;;19.50;74.00;;;;;;5010315;28;20018;-67
2024/01/26 01:36:02;;;;;;;88.10;58.38;;;19.50;73.90;;;;;;5010607;28;20489;-67
2024/01/26 01:38:27;;;;;;;85.97;58.97;;;19.50;73.90;;;;;;5010506;28;20160;-67
2024/01/26 01:40:53;;;;;;;85.72;57.22;;;19.50;73.80;;;;;;5008323;28;20050;-67
2024/01/26 01:43:19;;;;;;;87.28;60.50;;;19.40;73.80;;;;;;5011018;28;20041;-67
2024/01/26 01:45:44;;;;;;;83.97;57.30;;;19.40;73.80;;;;;;5010248;28;20637;-67
2024/01/26 01:48:11;;;;;;;82.80;57.22;;;19.50;73.80;;;;;;5010888;28;20398;-66
2024/01/26 01:50:37;;;;;;;89.25;58.78;;;19.50;73.90;;;;;;5009862;28;20105;-66
2024/01/26 01:53:04;;;;;;;87.00;57.42;;;19.50;74.00;;;;;;5012072;28;20014;-65
2024/01/26 01:55:30;;;;;;;91.15;60.45;;;19.40;74.20;;;;;;5014293;28;20029;-66
2024/01/26 01:57:57;;;;;;;85.65;56.60;;;19.40;74.30;;;;;;5013816;28;20077;-66
2024/01/26 02:00:23;;;;;;;84.57;55.55;;;19.40;74.30;;;;;;5013626;28;20036;-67
2024/01/26 02:02:49;;;;;;;79.53;55.08;;;19.50;74.40;;;;;;5012607;28;20109;-67
2024/01/26 02:05:16;;;;;;;79.13;55.30;;;19.40;74.40;;;;;;5012844;28;20077;-67
2024/01/26 02:07:46;;;;;;;83.10;54.88;;;19.40;74.50;;;;;;5013666;28;20025;-67
2024/01/26 02:10:12;;;;;;;81.90;56.20;;;19.40;74.50;;;;;;5012013;28;20041;-66
2024/01/26 02:12:38;;;;;;;80.38;54.67;;;19.40;74.60;;;;;;5013821;28;20281;-66
2024/01/26 02:15:04;;;;;;;78.68;53.50;;;19.40;74.60;;;;;;5013994;28;20023;-67
2024/01/26 02:17:31;;;;;;;80.68;55.08;;;19.40;74.60;;;;;;5014032;28;20018;-67
2024/01/26 02:19:57;;;;;;;82.63;54.75;;;19.40;74.60;;;;;;5013088;28;20045;-67
2024/01/26 02:22:23;;;;;;;79.07;54.80;;;19.40;74.60;;;;;;5014529;28;20046;-67
2024/01/26 02:24:49;;;;;;;78.68;54.60;;;19.40;74.60;;;;;;5024843;28;20065;-67
2024/01/26 02:27:14;;;;;;;80.57;52.78;;;19.40;74.60;;;;;;5022196;28;20029;-66
2024/01/26 02:29:40;;;;;;;78.57;54.63;;;19.40;74.80;;;;;;5022852;28;20452;-66
2024/01/26 02:32:07;;;;;;;79.95;53.50;;;19.40;74.60;;;;;;5019996;28;20036;-69
2024/01/26 02:34:33;;;;;;;77.18;53.38;;;19.40;74.60;;;;;;5023530;28;20085;-69
2024/01/26 02:36:58;;;;;;;76.82;52.55;;;19.40;74.70;;;;;;5016983;28;20520;-68
2024/01/26 02:39:24;;;;;;;78.40;52.83;;;19.40;74.50;;;;;;5014832;28;20040;-67
2024/01/26 02:41:49;;;;;;;75.40;50.92;;;19.40;74.50;;;;;;5011539;28;20044;-67
2024/01/26 02:44:15;;;;;;;78.32;51.33;;;19.40;74.40;;;;;;5013577;28;20022;-66
2024/01/26 02:46:41;;;;;;;75.80;48.92;;;19.40;74.30;;;;;;5013177;28;20030;-68
2024/01/26 02:49:07;;;;;;;74.60;51.05;;;19.40;74.60;;;;;;5013773;28;20021;-66
2024/01/26 02:51:33;;;;;;;81.10;50.58;;;19.40;74.70;;;;;;5012281;28;20091;-66
2024/01/26 02:54:00;;;;;;;79.85;51.55;;;19.40;74.80;;;;;;5012916;28;20421;-67
2024/01/26 02:56:25;;;;;;;72.43;48.33;;;19.40;74.50;;;;;;5013136;28;20032;-67
2024/01/26 02:58:51;;;;;;;82.45;49.35;;;19.40;74.60;;;;;;5013040;28;20022;-67
2024/01/26 03:01:17;;;;;;;77.47;48.53;;;19.40;74.40;;;;;;5012371;28;20033;-67
2024/01/26 03:03:42;;;;;;;75.07;49.25;;;19.40;74.40;;;;;;5012665;28;20017;-67
2024/01/26 03:06:11;;;;;;;74.03;48.67;;;19.40;74.40;;;;;;5012786;28;20018;-67
2024/01/26 03:08:38;;;;;;;75.80;48.20;;;19.40;74.40;;;;;;5012888;28;20026;-67
2024/01/26 03:11:04;;;;;;;69.38;45.05;;;19.40;74.50;;;;;;5012000;28;20448;-68
2024/01/26 03:13:29;;;;;;;72.57;46.35;;;19.40;74.60;;;;;;5012837;28;20050;-68
2024/01/26 03:15:55;;;;;;;66.75;45.80;;;19.40;74.50;;;;;;5012614;28;20108;-68
2024/01/26 03:18:21;;;;;;;73.80;46.15;;;19.40;74.70;;;;;;5012863;28;20085;-68
2024/01/26 03:20:47;;;;;;;68.07;45.30;;;19.40;74.80;;;;;;5011955;28;20040;-68
2024/01/26 03:23:13;;;;;;;67.18;46.10;;;19.40;74.80;;;;;;5013210;28;20032;-68
2024/01/26 03:25:39;;;;;;;68.03;45.03;;;19.40;74.80;;;;;;5012596;28;20109;-68
2024/01/26 03:28:06;;;;;;;68.65;44.33;;;19.40;74.90;;;;;;5012659;28;20409;-68
2024/01/26 03:30:32;;;;;;;65.35;44.70;;;19.40;75.00;;;;;;5011804;28;20022;-68
2024/01/26 03:32:59;;;;;;;65.70;44.10;;;19.40;75.00;;;;;;5012279;28;20105;-68
2024/01/26 03:35:24;;;;;;;66.35;44.20;;;19.40;75.00;;;;;;5012521;28;20026;-69
2024/01/26 03:37:50;;;;;;;62.45;42.63;;;19.40;75.20;;;;;;5011940;28;20474;-68
2024/01/26 03:40:16;;;;;;;60.30;41.70;;;19.40;75.20;;;;;;5011706;28;20042;-69
2024/01/26 03:42:42;;;;;;;62.20;42.55;;;19.40;75.10;;;;;;5012223;28;20022;-70
2024/01/26 03:45:08;;;;;;;60.13;41.10;;;19.40;75.10;;;;;;5010950;28;20025;-70
2024/01/26 03:47:34;;;;;;;58.90;41.83;;;19.40;75.00;;;;;;5012104;28;20414;-70
2024/01/26 03:49:59;;;;;;;61.53;39.22;;;19.40;75.00;;;;;;5011538;28;20026;-71
2024/01/26 03:52:25;;;;;;;56.75;40.47;;;19.40;75.00;;;;;;5012383;28;20056;-71
2024/01/26 03:54:51;;;;;;;58.53;40.95;;;19.40;75.20;;;;;;5011856;28;20454;-69
2024/01/26 03:57:16;;;;;;;58.08;39.15;;;19.40;74.90;;;;;;5012012;28;20021;-67
2024/01/26 03:59:42;;;;;;;67.13;39.42;;;19.40;74.90;;;;;;5011628;28;20030;-67
2024/01/26 04:02:07;;;;;;;68.90;40.38;;;19.40;75.00;;;;;;5011217;28;20033;-66
2024/01/26 04:04:33;;;;;;;58.70;38.58;;;19.40;75.20;;;;;;5011728;28;20401;-66
2024/01/26 04:06:58;;;;;;;55.25;37.78;;;19.40;75.10;;;;;;5011648;28;20033;-66
2024/01/26 04:09:24;;;;;;;58.15;38.20;;;19.40;75.20;;;;;;5011577;28;20037;-66
2024/01/26 04:11:50;;;;;;;55.67;37.47;;;19.40;75.20;;;;;;5010446;28;20033;-68
2024/01/26 04:14:15;;;;;;;60.65;37.33;;;19.40;75.20;;;;;;5011796;28;20477;-67
2024/01/26 04:16:41;;;;;;;54.85;37.42;;;19.40;75.40;;;;;;5011021;28;20100;-68
2024/01/26 04:19:06;;;;;;;53.28;35.95;;;19.40;75.40;;;;;;5011531;28;20068;-68
2024/01/26 04:21:32;;;;;;;53.83;35.20;;;19.40;75.50;;;;;;5009404;28;20041;-67
2024/01/26 04:23:58;;;;;;;53.10;35.38;;;19.30;75.50;;;;;;5011801;28;20014;-67
2024/01/26 04:26:23;;;;;;;59.55;37.00;;;19.30;75.50;;;;;;5011442;28;20536;-67
2024/01/26 04:28:49;;;;;;;51.65;36.03;;;19.30;75.60;;;;;;5011378;28;20026;-67
2024/01/26 04:31:15;;;;;;;59.92;35.60;;;19.40;75.60;;;;;;5010542;28;20485;-67
2024/01/26 04:33:40;;;;;;;51.60;33.90;;;19.30;75.70;;;;;;5011175;28;20041;-67
2024/01/26 04:36:09;;;;;;;50.33;33.78;;;19.30;75.70;;;;;;5011521;28;20018;-65
2024/01/26 04:38:38;;;;;;;53.80;33.08;;;19.30;75.90;;;;;;5010362;28;20745;-66
2024/01/26 04:41:04;;;;;;;63.33;36.17;;;19.30;75.80;;;;;;5002954;28;20493;-66
2024/01/26 04:43:29;;;;;;;58.53;34.78;;;19.30;76.20;;;;;;5011619;28;20075;-66
2024/01/26 04:45:55;;;;;;;56.17;33.35;;;19.40;76.30;;;;;;5010816;28;20034;-66
2024/01/26 04:48:21;;;;;;;48.88;33.13;;;19.30;76.40;;;;;;5011323;28;20057;-66
2024/01/26 04:50:47;;;;;;;49.42;33.03;;;19.30;76.30;;;;;;5008886;28;20050;-66
2024/01/26 04:53:15;;;;;;;49.83;33.58;;;19.30;76.40;;;;;;5009836;28;20117;-66
2024/01/26 04:55:41;;;;;;;53.53;33.72;;;19.40;76.50;;;;;;5009851;28;20028;-66
2024/01/26 04:58:07;;;;;;;50.92;32.03;;;19.30;76.50;;;;;;5014135;28;20025;-67
2024/01/26 05:00:32;;;;;;;49.75;31.15;;;19.40;76.50;;;;;;5024416;28;20033;-67
2024/01/26 05:02:58;;;;;;;44.75;31.40;;;19.30;76.50;;;;;;5029292;28;20026;-67
2024/01/26 05:05:24;;;;;;;42.90;30.15;;;19.30;76.70;;;;;;5030149;28;20312;-66
2024/01/26 05:07:50;;;;;;;45.35;30.85;;;19.40;76.70;;;;;;5030391;28;20085;-66
2024/01/26 05:10:15;;;;;;;48.92;30.65;;;19.30;76.70;;;;;;5024821;28;20026;-66
2024/01/26 05:12:41;;;;;;;43.15;29.05;;;19.30;76.40;;;;;;5013250;28;20497;-65
2024/01/26 05:15:11;;;;;;;47.20;30.10;;;19.30;76.60;;;;;;5011814;28;20466;-66
2024/01/26 05:17:37;;;;;;;49.00;29.40;;;19.30;76.60;;;;;;5010753;28;20026;-66
2024/01/26 05:20:04;;;;;;;43.30;29.80;;;19.40;76.60;;;;;;5010156;28;20022;-66
2024/01/26 05:22:30;;;;;;;47.47;30.38;;;19.40;76.50;;;;;;5010560;28;20564;-66
2024/01/26 05:24:56;;;;;;;50.35;28.88;;;19.30;76.40;;;;;;5009338;28;20036;-66
2024/01/26 05:27:22;;;;;;;52.20;30.90;;;19.40;76.60;;;;;;5011494;28;20444;-66
2024/01/26 05:29:47;;;;;;;46.22;29.00;;;19.30;76.60;;;;;;5014110;28;20029;-66
2024/01/26 05:32:14;;;;;;;42.97;28.20;;;19.30;76.60;;;;;;5014372;28;20381;-66
2024/01/26 05:34:40;;;;;;;49.42;29.25;;;19.30;76.70;;;;;;5014341;28;20022;-66
2024/01/26 05:37:06;;;;;;;44.22;27.20;;;19.30;76.70;;;;;;5011719;28;20036;-66
2024/01/26 05:39:32;;;;;;;43.72;27.85;;;19.30;76.50;;;;;;5014849;28;20030;-66
2024/01/26 05:41:58;;;;;;;44.50;27.02;;;19.30;76.50;;;;;;5013872;28;20516;-66
2024/01/26 05:44:24;;;;;;;40.47;27.20;;;19.30;76.60;;;;;;5015072;28;20030;-66
2024/01/26 05:46:49;;;;;;;41.33;27.85;;;19.30;76.50;;;;;;5014772;28;20034;-66
2024/01/26 05:49:16;;;;;;;41.97;26.70;;;19.30;76.60;;;;;;5014482;28;20032;-66
2024/01/26 05:51:42;;;;;;;41.92;27.65;;;19.30;76.50;;;;;;5013817;28;20500;-66
2024/01/26 05:54:08;;;;;;;37.40;26.33;;;19.30;76.40;;;;;;5014337;28;20018;-66
2024/01/26 05:56:33;;;;;;;37.80;25.17;;;19.40;76.50;;;;;;5014431;28;20029;-67
2024/01/26 05:58:59;;;;;;;41.80;26.10;;;19.30;76.40;;;;;;5014206;28;20493;-66
2024/01/26 06:01:24;;;;;;;37.15;24.83;;;19.30;76.30;;;;;;5021153;28;20026;-67
2024/01/26 06:03:50;;;;;;;36.67;24.17;;;19.30;76.50;;;;;;5021852;28;20041;-67
2024/01/26 06:06:16;;;;;;;34.47;24.52;;;19.30;76.50;;;;;;5016003;28;20030;-66
2024/01/26 06:08:44;;;;;;;39.10;25.58;;;19.30;76.50;;;;;;5013914;28;20064;-67
2024/01/26 06:11:10;;;;;;;38.22;25.27;;;19.30;76.50;;;;;;5013057;28;20523;-67
2024/01/26 06:13:36;;;;;;;39.97;25.45;;;19.30;76.60;;;;;;5013912;28;20097;-67
2024/01/26 06:16:03;;;;;;;39.33;23.95;;;19.30;76.50;;;;;;5006360;28;20022;-66
2024/01/26 06:18:29;;;;;;;43.53;24.10;;;19.30;77.00;;;;;;5013863;28;20041;-66
2024/01/26 06:20:54;;;;;;;41.75;24.55;;;19.30;76.90;;;;;;5011179;28;20025;-65
2024/01/26 06:23:20;;;;;;;36.67;24.00;;;19.30;76.80;;;;;;5013903;28;20033;-66
2024/01/26 06:25:46;;;;;;;34.15;22.45;;;19.30;76.80;;;;;;5013567;28;20660;-67
2024/01/26 06:28:12;;;;;;;37.33;22.77;;;19.30;76.80;;;;;;5013534;28;20033;-67
2024/01/26 06:30:38;;;;;;;42.38;23.15;;;19.30;76.70;;;;;;5012724;28;20026;-68
2024/01/26 06:33:04;;;;;;;38.83;23.15;;;19.30;77.00;;;;;;5013444;28;20037;-68
2024/01/26 06:35:29;;;;;;;43.95;23.35;;;19.30;76.50;;;;;;5013803;28;20490;-68
2024/01/26 06:37:55;;;;;;;36.22;21.98;;;19.30;76.90;;;;;;5013750;28;20053;-68
2024/01/26 06:40:21;;;;;;;38.42;21.67;;;19.30;76.40;;;;;;5012865;28;20105;-66
2024/01/26 06:42:46;;;;;;;40.42;22.05;;;19.30;76.40;;;;;;5012961;28;20080;-66
2024/01/26 06:45:13;;;;;;;47.25;22.02;;;19.30;76.10;;;;;;5011943;28;20025;-65
2024/01/26 06:47:39;;;;;;;39.50;21.60;;;19.30;76.10;;;;;;5013135;28;20022;-66
2024/01/26 06:50:06;;;;;;;64.10;22.73;;;19.40;76.00;;;;;;5012277;28;20026;-65
2024/01/26 06:52:32;;;;;;;78.22;23.70;;;19.40;75.90;;;;;;5012987;28;20405;-65
2024/01/26 06:54:58;;;;;;;58.17;21.70;;;19.40;75.70;;;;;;5012613;28;20014;-65
2024/01/26 06:57:24;;;;;;;45.60;21.40;;;19.40;75.70;;;;;;5012690;28;20032;-65
2024/01/26 06:59:50;;;;;;;38.53;21.02;;;19.40;75.50;;;;;;5012891;28;20440;-66
2024/01/26 07:02:16;;;;;;;30.55;19.58;;;19.40;75.40;;;;;;5012579;28;20030;-65
2024/01/26 07:04:43;;;;;;;48.05;20.77;;;19.40;75.20;;;;;;5012447;28;20353;-65
2024/01/26 07:07:09;;;;;;;42.88;20.00;;;19.30;75.20;;;;;;5012853;28;20034;-65
2024/01/26 07:09:34;;;;;;;43.88;21.02;;;19.30;75.10;;;;;;5012796;28;20037;-66
2024/01/26 07:12:02;;;;;;;49.75;20.08;;;19.30;75.00;;;;;;5012050;28;20022;-64
2024/01/26 07:14:28;;;;;;;46.08;19.08;;;19.30;75.00;;;;;;5012761;28;20033;-66
2024/01/26 07:16:53;;;;;;;37.17;19.60;;;19.30;74.90;;;;;;5012445;28;20010;-66
2024/01/26 07:19:19;;;;;;;37.13;19.65;;;19.30;74.90;;;;;;5012737;28;20071;-66
2024/01/26 07:21:44;;;;;;;33.90;18.80;;;19.30;74.80;;;;;;5011918;28;20034;-63
2024/01/26 07:24:10;;;;;;;30.73;18.90;;;19.20;75.10;;;;;;5012634;28;20060;-65
2024/01/26 07:26:37;;;;;;;34.05;18.42;;;19.20;75.20;;;;;;5012347;28;20038;-65
2024/01/26 07:29:03;;;;;;;38.22;18.55;;;19.20;75.10;;;;;;5004265;28;20022;-65
2024/01/26 07:31:29;;;;;;;26.80;18.20;;;19.20;75.20;;;;;;5012337;28;20057;-67
2024/01/26 07:33:55;;;;;;;27.17;17.92;;;19.30;75.00;;;;;;5014676;28;20022;-68
2024/01/26 07:36:20;;;;;;;34.33;18.55;;;19.30;75.30;;;;;;5019904;28;20026;-68
2024/01/26 07:38:46;;;;;;;31.15;17.42;;;19.30;75.20;;;;;;5017412;28;20018;-69
2024/01/26 07:41:12;;;;;;;38.33;17.95;;;19.30;75.20;;;;;;5012123;28;20537;-66
2024/01/26 07:43:37;;;;;;;33.05;17.05;;;19.30;75.10;;;;;;5014891;28;20463;-66
2024/01/26 07:46:03;;;;;;;20.42;8.65;;;19.30;75.10;;;;;;5012791;28;20552;-66
2024/01/26 07:48:29;;;;;;;18.25;8.13;;;18.40;54.40;;;;;;5012174;28;20105;-67
2024/01/26 07:50:54;;;;;;;22.83;8.07;;;16.80;53.00;;;;;;5010184;28;20461;-65
2024/01/26 07:53:20;;;;;;;15.63;7.03;;;15.80;54.90;;;;;;5012027;28;20029;-65
2024/01/26 07:55:45;;;;;;;20.15;7.53;;;14.60;58.10;;;;;;5011891;28;20485;-65
2024/01/26 07:58:11;;;;;;;62.55;9.93;;;14.10;57.00;;;;;;5011860;28;20014;-66
2024/01/26 08:00:37;;;;;;;33.60;7.60;;;14.00;63.20;;;;;;5010866;28;20061;-66
2024/01/26 08:03:03;;;;;;;23.40;8.13;;;14.60;63.20;;;;;;5011594;28;20028;-67
2024/01/26 08:05:29;;;;;;;23.73;8.30;;;15.10;71.20;;;;;;5011853;28;20026;-66
2024/01/26 08:07:55;;;;;;;24.58;7.88;;;15.50;73.30;;;;;;5011576;28;20025;-66
2024/01/26 08:10:20;;;;;;;18.15;6.72;;;15.90;73.20;;;;;;5010679;28;20132;-66
2024/01/26 08:12:46;;;;;;;36.38;9.48;;;16.30;73.40;;;;;;5010213;28;20026;-66
2024/01/26 08:15:12;;;;;;;40.97;9.63;;;16.50;73.00;;;;;;5011631;28;20533;-66
2024/01/26 08:17:38;;;;;;;45.17;10.50;;;16.70;72.10;;;;;;5011602;28;20022;-66
2024/01/26 08:20:05;;;;;;;30.40;9.38;;;17.00;71.80;;;;;;5010839;28;20512;-66
2024/01/26 08:22:31;;;;;;;47.92;9.55;;;17.20;71.00;;;;;;5011318;28;20549;-66
2024/01/26 08:25:00;;;;;;;27.45;7.85;;;17.30;70.30;;;;;;5011096;28;20105;-66
2024/01/26 08:27:26;;;;;;;35.83;8.25;;;17.50;69.90;;;;;;5011521;28;20389;-66
2024/01/26 08:29:52;;;;;;;29.02;8.40;;;17.50;69.60;;;;;;5010831;28;20041;-65
2024/01/26 08:32:18;;;;;;;25.73;8.35;;;17.70;69.40;;;;;;5011047;28;20378;-67
2024/01/26 08:34:43;;;;;;;28.65;8.98;;;17.80;69.20;;;;;;5011198;28;20026;-66
2024/01/26 08:37:09;;;;;;;30.30;8.07;;;17.80;69.10;;;;;;5011687;28;20026;-66
2024/01/26 08:39:35;;;;;;;32.15;8.45;;;17.90;69.20;;;;;;5011152;28;20099;-66
2024/01/26 08:42:02;;;;;;;23.60;8.63;;;18.00;69.10;;;;;;5010800;28;20026;-66
2024/01/26 08:44:30;;;;;;;24.33;7.60;;;18.00;69.10;;;;;;5011385;28;20026;-66
2024/01/26 08:46:56;;;;;;;30.17;7.85;;;18.10;69.10;;;;;;5010671;28;20026;-66
2024/01/26 08:49:22;;;;;;;23.50;7.63;;;18.10;69.00;;;;;;5011048;28;20706;-66
2024/01/26 08:51:47;;;;;;;27.15;7.32;;;18.20;69.00;;;;;;5010076;28;20018;-66
2024/01/26 08:54:13;;;;;;;28.10;8.38;;;18.20;69.10;;;;;;5011380;28;20105;-66
2024/01/26 08:56:42;;;;;;;20.55;7.03;;;18.20;69.10;;;;;;5010950;28;20065;-66
2024/01/26 08:59:11;;;;;;;24.98;7.30;;;18.30;69.10;;;;;;5010839;28;20018;-66
2024/01/26 09:01:38;;;;;;;25.17;7.72;;;18.30;69.10;;;;;;5010293;28;20068;-66
2024/01/26 09:04:05;;;;;;;20.95;7.10;;;18.30;69.10;;;;;;5003587;28;20064;-66
2024/01/26 09:06:32;;;;;;;25.08;6.90;;;18.40;69.20;;;;;;5010855;28;20455;-66
2024/01/26 09:08:57;;;;;;;16.48;6.30;;;18.40;69.20;;;;;;5011333;28;20026;-66
2024/01/26 09:11:23;;;;;;;17.25;7.03;;;18.40;69.30;;;;;;5009622;28;20034;-66
2024/01/26 09:13:49;;;;;;;19.42;7.05;;;18.40;69.30;;;;;;5011008;28;20026;-66
2024/01/26 09:16:15;;;;;;;19.30;6.65;;;18.40;69.40;;;;;;5010980;28;20022;-66
2024/01/26 09:18:40;;;;;;;19.92;7.70;;;18.40;69.40;;;;;;5010734;28;20048;-66
2024/01/26 09:21:10;;;;;;;22.48;6.85;;;18.50;69.40;;;;;;5009679;28;20041;-66
2024/01/26 09:23:37;;;;;;;23.92;6.97;;;18.50;69.50;;;;;;5010898;28;20018;-67
2024/01/26 09:26:02;;;;;;;20.20;6.55;;;18.50;69.50;;;;;;5010894;28;20648;-66
2024/01/26 09:28:28;;;;;;;19.25;7.35;;;18.50;69.60;;;;;;5011099;28;20037;-66
2024/01/26 09:30:54;;;;;;;19.42;6.32;;;18.50;69.60;;;;;;5009654;28;20029;-66
2024/01/26 09:33:20;;;;;;;19.38;6.50;;;18.50;69.60;;;;;;5010768;28;20393;-66
2024/01/26 09:35:46;;;;;;;16.30;5.97;;;18.50;69.60;;;;;;5010595;28;20018;-66
2024/01/26 09:38:12;;;;;;;17.77;7.68;;;18.50;69.70;;;;;;5011516;28;20033;-66
2024/01/26 09:40:39;;;;;;;12.52;5.97;;;18.50;69.70;;;;;;5009611;28;20025;-66
2024/01/26 09:43:06;;;;;;;16.80;5.85;;;18.50;69.70;;;;;;5010447;28;20037;-66
2024/01/26 09:45:32;;;;;;;19.50;6.07;;;18.50;69.70;;;;;;5010598;28;20104;-66
2024/01/26 09:47:58;;;;;;;16.40;5.88;;;18.50;69.70;;;;;;5010429;28;20056;-66
2024/01/26 09:50:26;;;;;;;18.02;6.85;;;18.50;69.70;;;;;;5009637;28;20045;-66
2024/01/26 09:52:52;;;;;;;14.65;5.55;;;18.50;69.70;;;;;;5008821;28;20026;-66
2024/01/26 09:55:19;;;;;;;20.50;5.97;;;18.50;69.70;;;;;;5010668;28;20010;-66
2024/01/26 09:57:47;;;;;;;16.67;6.20;;;18.50;69.70;;;;;;5010423;28;20071;-66
2024/01/26 10:00:14;;;;;;;14.75;6.13;;;18.60;69.70;;;;;;5009761;28;20101;-66
2024/01/26 10:02:41;;;;;;;21.25;6.43;;;18.50;69.70;;;;;;5010733;28;20041;-66
2024/01/26 10:05:07;;;;;;;13.18;5.57;;;18.60;69.70;;;;;;5010662;28;20037;-66
2024/01/26 10:07:33;;;;;;;19.23;5.90;;;18.60;69.70;;;;;;5010632;28;20030;-66
2024/01/26 10:09:59;;;;;;;11.65;5.53;;;18.50;69.70;;;;;;5008533;28;20446;-66
2024/01/26 10:12:24;;;;;;;17.38;6.25;;;18.60;69.70;;;;;;5010545;28;20105;-66
2024/01/26 10:15:02;;;;;;;15.57;6.57;;;18.60;69.70;;;;;;5013260;28;20049;-66
2024/01/26 10:17:27;;;;;;;14.77;6.22;;;18.60;69.70;;;;;;5014240;28;20033;-67
2024/01/26 10:19:53;;;;;;;11.23;5.10;;;18.60;69.70;;;;;;5013313;28;20025;-66
2024/01/26 10:22:18;;;;;;;13.23;4.93;;;18.60;69.70;;;;;;5013397;28;20555;-66
2024/01/26 10:24:44;;;;;;;14.15;5.00;;;18.60;69.70;;;;;;5014306;28;20041;-66
2024/01/26 10:27:10;;;;;;;13.57;5.57;;;18.60;69.70;;;;;;5013714;28;20547;-66
2024/01/26 10:29:37;;;;;;;14.20;5.63;;;18.60;69.70;;;;;;5013390;28;20034;-66
2024/01/26 10:32:08;;;;;;;13.20;5.38;;;18.60;69.70;;;;;;5005863;28;20022;-66
2024/01/26 10:34:35;;;;;;;13.32;5.30;;;18.60;69.80;;;;;;5012398;28;20124;-66
2024/01/26 10:37:06;;;;;;;12.23;5.32;;;18.60;69.70;;;;;;5013974;28;20386;-66
2024/01/26 10:39:38;;;;;;;12.93;4.55;;;18.60;69.80;;;;;;5013409;28;20022;-66
2024/01/26 10:42:04;;;;;;;13.40;4.90;;;18.70;70.10;;;;;;5005381;28;20108;-65
2024/01/26 10:44:33;;;;;;;12.18;5.53;;;18.60;70.30;;;;;;5013420;28;20034;-65
2024/01/26 10:47:02;;;;;;;14.40;4.60;;;18.70;70.40;;;;;;5013086;28;20175;-65
2024/01/26 10:49:29;;;;;;;15.40;4.93;;;18.60;70.50;;;;;;5013242;28;20440;-66
2024/01/26 10:51:56;;;;;;;17.17;5.68;;;18.60;70.50;;;;;;5011309;28;20026;-65
2024/01/26 10:54:25;;;;;;;11.75;4.82;;;18.70;70.50;;;;;;5013202;28;20075;-65
2024/01/26 10:56:51;;;;;;;13.65;4.80;;;18.70;70.50;;;;;;5012693;28;20144;-65
2024/01/26 10:59:17;;;;;;;14.50;5.53;;;18.70;70.40;;;;;;5013002;28;20462;-66
2024/01/26 11:01:44;;;;;;;12.77;4.63;;;18.70;70.30;;;;;;5011015;28;20030;-66
2024/01/26 11:04:12;;;;;;;22.65;5.32;;;18.70;70.20;;;;;;5014270;28;20167;-66
2024/01/26 11:06:40;;;;;;;12.57;4.63;;;18.70;70.10;;;;;;5014904;28;20489;-66
2024/01/26 11:09:08;;;;;;;14.05;5.07;;;18.70;70.20;;;;;;5006280;28;20100;-65
2024/01/26 11:11:38;;;;;;;14.65;5.18;;;18.70;70.30;;;;;;5013412;28;20173;-68
2024/01/26 11:14:05;;;;;;;21.25;5.40;;;18.70;70.50;;;;;;5012093;28;20029;-66
2024/01/26 11:16:38;;;;;;;18.27;5.40;;;18.70;70.50;;;;;;5020954;28;20148;-67
2024/01/26 11:19:03;;;;;;;19.15;5.63;;;18.70;70.60;;;;;;5011089;28;20022;-70
2024/01/26 11:21:40;;;;;;;20.70;5.88;;;18.70;70.90;;;;;;5014495;28;20030;-67
2024/01/26 11:24:14;;;;;;;24.92;5.43;;;18.70;71.00;;;;;;5006077;28;20049;-67
2024/01/26 11:26:41;;;;;;;20.92;5.50;;;18.70;71.30;;;;;;5014267;28;20037;-68
2024/01/26 11:29:13;;;;;;;15.82;4.70;;;18.70;71.50;;;;;;5012192;28;20032;-67
2024/01/26 11:31:42;;;;;;;15.40;5.10;;;18.80;71.90;;;;;;5011508;28;20425;-67
2024/01/26 11:34:23;;;;;;;17.83;5.97;;;18.70;72.10;;;;;;5012497;28;20018;-67
2024/01/26 11:37:04;;;;;;;14.40;4.78;;;18.80;72.40;;;;;;5008308;28;20029;-67
2024/01/26 11:39:31;;;;;;;15.10;5.20;;;18.70;72.60;;;;;;5010760;28;20026;-67
2024/01/26 11:41:58;;;;;;;12.10;4.72;;;18.80;72.60;;;;;;5011950;28;20018;-67
2024/01/26 11:44:30;;;;;;;13.50;4.10;;;18.70;73.10;;;;;;5011547;28;20030;-67
2024/01/26 11:46:56;;;;;;;12.38;3.95;;;18.80;73.10;;;;;;5013441;28;20041;-67
2024/01/26 11:49:22;;;;;;;11.10;4.13;;;18.80;72.80;;;;;;5016193;28;20029;-68
2024/01/26 11:51:48;;;;;;;14.15;4.93;;;18.80;72.50;;;;;;5011754;28;20026;-68
2024/01/26 11:54:15;;;;;;;17.33;4.88;;;18.80;72.50;;;;;;5011953;28;20105;-66
2024/01/26 11:56:41;;;;;;;10.73;4.00;;;18.80;72.60;;;;;;5013434;28;20026;-68
2024/01/26 11:59:08;;;;;;;13.95;4.78;;;18.80;72.50;;;;;;5011942;28;20105;-66
2024/01/26 12:01:33;;;;;;;12.20;4.57;;;18.80;72.50;;;;;;5018104;28;21117;-67
2024/01/26 12:04:00;;;;;;;10.45;4.22;;;18.70;72.30;;;;;;5022035;28;20034;-66
2024/01/26 12:06:26;;;;;;;14.23;4.95;;;18.70;72.10;;;;;;5020408;28;20028;-67
2024/01/26 12:08:53;;;;;;;11.77;4.15;;;18.70;72.10;;;;;;5026284;28;20076;-66
2024/01/26 12:11:18;;;;;;;14.07;5.10;;;18.70;71.90;;;;;;5025309;28;20022;-66
2024/01/26 12:13:44;;;;;;;17.40;4.75;;;18.70;71.90;;;;;;5026074;28;20483;-66
2024/01/26 12:16:10;;;;;;;9.90;4.03;;;18.70;71.80;;;;;;5015538;28;20442;-67
2024/01/26 12:18:36;;;;;;;11.38;4.57;;;18.70;71.70;;;;;;5013036;28;20076;-67
2024/01/26 12:21:02;;;;;;;12.23;3.78;;;18.70;71.70;;;;;;5011846;28;20026;-67
2024/01/26 12:23:28;;;;;;;14.07;4.82;;;18.70;71.70;;;;;;5012346;28;20508;-65
2024/01/26 12:25:53;;;;;;;11.10;3.60;;;18.70;71.70;;;;;;5012341;28;20101;-65